createdAt,value
2019-02-05T00:00:54.405Z,0.93
2019-02-05T00:03:22.390Z,0.73
2019-02-05T00:05:50.319Z,0.97
2019-02-05T00:08:18.087Z,1.20
2019-02-05T00:10:48.921Z,0.97
2019-02-05T00:13:18.276Z,1.00
2019-02-05T00:15:45.598Z,1.10
2019-02-05T00:18:12.780Z,1.17
2019-02-05T00:20:39.880Z,1.07
2019-02-05T00:23:09.096Z,1.20
2019-02-05T00:25:37.295Z,1.20
2019-02-05T00:28:04.808Z,1.50
2019-02-05T00:30:32.999Z,1.37
2019-02-05T00:33:00.131Z,1.90
2019-02-05T00:35:28.434Z,1.80
2019-02-05T00:37:56.675Z,1.57
2019-02-05T00:40:24.083Z,2.00
2019-02-05T00:42:51.336Z,2.07
2019-02-05T00:45:19.347Z,2.20
2019-02-05T00:47:46.664Z,1.53
2019-02-05T00:50:13.982Z,2.13
2019-02-05T00:52:41.084Z,2.30
2019-02-05T00:55:09.446Z,2.20
2019-02-05T00:57:36.557Z,2.00
2019-02-05T01:00:09.047Z,2.50
2019-02-05T01:02:36.550Z,2.27
2019-02-05T01:05:04.811Z,2.80
2019-02-05T01:07:31.934Z,2.20
2019-02-05T01:09:59.027Z,3.43
2019-02-05T01:12:26.627Z,3.33
2019-02-05T01:14:53.843Z,3.90
2019-02-05T01:17:21.055Z,3.20
2019-02-05T01:19:50.439Z,4.27
2019-02-05T01:22:17.548Z,3.23
2019-02-05T01:24:44.640Z,3.37
2019-02-05T01:27:11.732Z,4.33
2019-02-05T01:29:41.090Z,4.27
2019-02-05T01:32:08.196Z,3.60
2019-02-05T01:34:35.421Z,3.33
2019-02-05T01:37:03.617Z,4.23
2019-02-05T01:39:32.942Z,3.83
2019-02-05T01:42:01.977Z,4.40
2019-02-05T01:44:29.155Z,3.97
2019-02-05T01:46:57.455Z,5.03
2019-02-05T01:49:26.529Z,4.80
2019-02-05T01:51:53.925Z,4.23
2019-02-05T01:54:21.133Z,5.57
2019-02-05T01:56:48.423Z,6.73
2019-02-05T01:59:17.321Z,5.70
2019-02-05T02:01:44.532Z,3.27
2019-02-05T02:04:11.681Z,5.80
2019-02-05T02:06:38.828Z,3.87
2019-02-05T02:09:06.931Z,5.43
2019-02-05T02:11:34.097Z,4.30
2019-02-05T02:14:01.435Z,5.30
2019-02-05T02:16:28.705Z,6.07
2019-02-05T02:18:55.841Z,4.07
2019-02-05T02:21:22.935Z,5.50
2019-02-05T02:23:50.052Z,5.87
2019-02-05T02:26:18.307Z,5.33
2019-02-05T02:28:45.407Z,6.23
2019-02-05T02:31:12.551Z,5.90
2019-02-05T02:33:42.761Z,4.97
2019-02-05T02:36:10.978Z,6.10
2019-02-05T02:38:39.274Z,6.63
2019-02-05T02:41:07.487Z,5.30
2019-02-05T02:43:35.159Z,5.33
2019-02-05T02:46:03.746Z,4.47
2019-02-05T02:48:31.052Z,6.13
2019-02-05T02:51:00.067Z,6.77
2019-02-05T02:53:27.157Z,5.60
2019-02-05T02:55:55.568Z,5.83
2019-02-05T02:58:22.719Z,4.70
2019-02-05T03:00:50.368Z,5.87
2019-02-05T03:03:18.580Z,7.63
2019-02-05T03:05:45.680Z,3.47
2019-02-05T03:08:13.985Z,2.20
2019-02-05T03:10:43.145Z,6.27
2019-02-05T03:13:12.032Z,6.27
2019-02-05T03:15:39.529Z,2.50
2019-02-05T03:18:06.860Z,5.50
2019-02-05T03:20:35.369Z,5.37
2019-02-05T03:23:05.388Z,6.07
2019-02-05T03:25:33.607Z,5.57
2019-02-05T03:28:00.710Z,6.70
2019-02-05T03:30:29.076Z,7.43
2019-02-05T03:35:16.561Z,6.43
2019-02-05T03:37:43.806Z,4.93
2019-02-05T03:40:40.910Z,5.97
2019-02-05T03:43:08.139Z,6.97
2019-02-05T03:45:35.231Z,6.80
2019-02-05T03:48:03.383Z,6.20
2019-02-05T03:50:32.602Z,6.20
2019-02-05T03:53:02.732Z,6.30
2019-02-05T03:56:19.045Z,6.00
2019-02-05T03:59:33.035Z,4.87
2019-02-05T04:02:41.309Z,4.93
2019-02-05T04:05:45.065Z,6.10
2019-02-05T04:08:56.770Z,5.07
2019-02-05T04:12:10.839Z,6.53
2019-02-05T04:15:10.842Z,5.17
2019-02-05T04:18:19.708Z,5.47
2019-02-05T04:21:26.553Z,5.70
2019-02-05T04:25:08.803Z,6.70
2019-02-05T04:28:21.838Z,6.43
2019-02-05T04:31:37.155Z,6.77
2019-02-05T04:34:50.734Z,6.47
2019-02-05T04:38:04.632Z,5.70
2019-02-05T04:40:50.915Z,4.83
2019-02-05T04:43:50.323Z,5.90
2019-02-05T04:46:48.017Z,6.73
2019-02-05T04:50:04.220Z,5.70
2019-02-05T04:53:07.822Z,5.50
2019-02-05T04:56:13.680Z,6.83
2019-02-05T04:59:09.053Z,4.80
2019-02-05T05:02:22.602Z,7.57
2019-02-05T05:05:31.024Z,6.63
2019-02-05T05:08:40.908Z,5.57
2019-02-05T05:11:10.076Z,6.20
2019-02-05T05:13:38.395Z,6.10
2019-02-05T05:16:06.714Z,6.10
2019-02-05T05:18:33.925Z,6.13
2019-02-05T05:21:01.902Z,7.20
2019-02-05T05:23:29.403Z,6.30
2019-02-05T05:25:57.826Z,4.80
2019-02-05T05:28:26.144Z,5.67
2019-02-05T05:30:54.140Z,4.93
2019-02-05T05:33:21.517Z,6.13
2019-02-05T05:35:48.847Z,4.97
2019-02-05T05:38:15.939Z,5.13
2019-02-05T05:40:43.034Z,5.90
2019-02-05T05:43:10.125Z,5.73
2019-02-05T05:45:37.218Z,6.27
2019-02-05T05:48:04.324Z,5.70
2019-02-05T05:50:31.702Z,5.80
2019-02-05T05:52:58.806Z,5.50
2019-02-05T05:55:25.939Z,4.67
2019-02-05T05:57:53.050Z,5.77
2019-02-05T06:00:20.245Z,7.20
2019-02-05T06:02:47.357Z,5.17
2019-02-05T06:05:16.764Z,5.33
2019-02-05T06:07:43.956Z,4.97
2019-02-05T06:10:11.647Z,6.70
2019-02-05T06:12:38.740Z,7.37
2019-02-05T06:15:07.462Z,7.57
2019-02-05T06:17:34.613Z,7.10
2019-02-05T06:20:01.752Z,4.87
2019-02-05T06:22:28.851Z,5.63
2019-02-05T06:24:56.040Z,6.93
2019-02-05T06:27:23.168Z,6.83
2019-02-05T06:29:50.356Z,6.87
2019-02-05T06:32:17.462Z,5.57
2019-02-05T06:34:44.590Z,6.83
2019-02-05T06:37:11.688Z,6.97
2019-02-05T06:39:38.797Z,8.07
2019-02-05T06:42:08.884Z,7.43
2019-02-05T06:44:35.996Z,7.03
2019-02-05T06:47:03.593Z,6.63
2019-02-05T06:49:30.715Z,6.83
2019-02-05T06:51:57.817Z,7.10
2019-02-05T06:54:24.938Z,7.17
2019-02-05T06:56:52.029Z,7.00
2019-02-05T06:59:19.165Z,6.10
2019-02-05T07:01:46.320Z,7.27
2019-02-05T07:04:13.433Z,7.17
2019-02-05T07:06:40.937Z,6.37
2019-02-05T07:09:09.156Z,5.73
2019-02-05T07:11:36.253Z,5.47
2019-02-05T07:14:04.397Z,6.43
2019-02-05T07:16:31.496Z,5.77
2019-02-05T07:18:58.825Z,6.23
2019-02-05T07:21:25.921Z,5.77
2019-02-05T07:23:53.223Z,6.47
2019-02-05T07:26:20.821Z,8.20
2019-02-05T07:28:58.206Z,5.63
2019-02-05T07:31:16.915Z,5.77
2019-02-05T07:33:44.117Z,5.63
2019-02-05T07:36:11.208Z,5.57
2019-02-05T07:38:38.347Z,5.77
2019-02-05T07:41:05.435Z,6.27
2019-02-05T07:43:32.536Z,6.37
2019-02-05T07:45:59.640Z,5.57
2019-02-05T07:48:27.042Z,6.23
2019-02-05T07:50:54.142Z,4.60
2019-02-05T07:53:21.227Z,6.37
2019-02-05T07:55:48.320Z,6.67
2019-02-05T07:58:15.452Z,6.27
2019-02-05T08:00:42.642Z,6.17
2019-02-05T08:03:09.769Z,5.67
2019-02-05T08:05:37.019Z,5.57
2019-02-05T08:08:06.428Z,5.37
2019-02-05T08:10:33.554Z,6.33
2019-02-05T08:13:01.560Z,5.30
2019-02-05T08:15:30.440Z,6.40
2019-02-05T08:17:58.877Z,4.83
2019-02-05T08:20:26.072Z,5.50
2019-02-05T08:22:53.168Z,6.50
2019-02-05T08:25:20.383Z,5.13
2019-02-05T08:27:47.477Z,7.03
2019-02-05T08:30:19.796Z,6.87
2019-02-05T08:32:46.887Z,5.87
2019-02-05T08:35:14.880Z,5.90
2019-02-05T08:37:44.186Z,6.40
2019-02-05T08:40:16.185Z,5.10
2019-02-05T08:42:46.329Z,6.83
2019-02-05T08:45:18.840Z,5.63
2019-02-05T08:47:46.146Z,5.93
2019-02-05T08:50:15.869Z,4.80
2019-02-05T08:52:44.345Z,6.63
2019-02-05T08:55:13.397Z,5.07
2019-02-05T08:57:41.804Z,5.43
2019-02-05T09:00:13.182Z,5.37
2019-02-05T09:02:41.487Z,4.53
2019-02-05T09:05:08.962Z,5.10
2019-02-05T09:07:37.956Z,5.50
2019-02-05T09:10:06.373Z,5.73
2019-02-05T09:12:34.605Z,4.57
2019-02-05T09:15:01.847Z,5.50
2019-02-05T09:17:28.955Z,3.50
2019-02-05T09:19:58.963Z,5.17
2019-02-05T09:22:27.526Z,4.50
2019-02-05T09:24:54.640Z,5.13
2019-02-05T09:27:22.865Z,3.53
2019-02-05T09:29:49.947Z,5.17
2019-02-05T09:32:17.181Z,4.73
2019-02-05T09:34:46.388Z,5.67
2019-02-05T09:37:13.488Z,5.83
2019-02-05T09:39:40.587Z,6.37
2019-02-05T09:42:08.872Z,6.10
2019-02-05T09:44:35.979Z,6.40
2019-02-05T09:47:03.175Z,6.50
2019-02-05T09:49:30.270Z,5.50
2019-02-05T09:51:57.376Z,4.90
2019-02-05T09:54:24.497Z,7.60
2019-02-05T09:56:51.628Z,7.07
2019-02-05T09:59:18.832Z,4.97
2019-02-05T10:01:47.782Z,6.70
2019-02-05T10:04:14.873Z,6.57
2019-02-05T10:06:41.975Z,5.97
2019-02-05T10:09:09.069Z,6.03
2019-02-05T10:11:36.220Z,4.67
2019-02-05T10:14:03.837Z,5.00
2019-02-05T10:16:30.926Z,6.77
2019-02-05T10:18:58.032Z,5.47
2019-02-05T10:21:26.047Z,5.67
2019-02-05T10:23:53.164Z,5.77
2019-02-05T10:26:20.266Z,4.97
2019-02-05T10:28:50.422Z,5.63
2019-02-05T10:31:17.604Z,6.77
2019-02-05T10:33:54.946Z,4.87
2019-02-05T10:36:13.718Z,4.53
2019-02-05T10:38:40.858Z,5.10
2019-02-05T10:41:09.112Z,5.60
2019-02-05T10:43:38.041Z,4.67
2019-02-05T10:46:07.101Z,5.10
2019-02-05T10:48:35.401Z,5.00
2019-02-05T10:51:03.808Z,5.20
2019-02-05T10:53:38.333Z,5.07
2019-02-05T10:56:05.333Z,5.03
2019-02-05T10:58:33.888Z,5.07
2019-02-05T11:01:01.020Z,5.60
2019-02-05T11:03:28.214Z,5.40
2019-02-05T11:05:55.537Z,5.03
2019-02-05T11:08:23.845Z,5.90
2019-02-05T11:10:52.752Z,5.70
2019-02-05T11:13:20.042Z,4.80
2019-02-05T11:15:48.696Z,5.90
2019-02-05T11:18:16.929Z,6.23
2019-02-05T11:20:52.760Z,6.47
2019-02-05T11:23:19.963Z,5.73
2019-02-05T11:25:47.076Z,5.90
2019-02-05T11:28:15.377Z,6.20
2019-02-05T11:30:43.851Z,6.47
2019-02-05T11:33:11.517Z,6.50
2019-02-05T11:35:39.871Z,3.87
2019-02-05T11:38:07.934Z,5.57
2019-02-05T11:40:35.554Z,5.67
2019-02-05T11:43:02.763Z,5.83
2019-02-05T11:45:30.291Z,5.37
2019-02-05T11:47:58.223Z,5.23
2019-02-05T11:50:25.449Z,6.20
2019-02-05T11:52:52.965Z,5.03
2019-02-05T11:55:22.202Z,3.67
2019-02-05T11:57:49.292Z,3.90
2019-02-05T12:00:37.724Z,3.97
2019-02-05T12:03:07.928Z,4.40
2019-02-05T12:05:35.224Z,5.00
2019-02-05T12:08:02.948Z,4.50
2019-02-05T12:10:31.187Z,4.73
2019-02-05T12:12:59.392Z,6.13
2019-02-05T12:15:26.488Z,3.70
2019-02-05T12:17:55.447Z,4.63
2019-02-05T12:20:22.633Z,4.93
2019-02-05T12:22:50.059Z,3.43
2019-02-05T12:25:17.881Z,4.40
2019-02-05T12:27:45.088Z,5.40
2019-02-05T12:30:20.050Z,3.60
2019-02-05T12:32:47.401Z,4.70
2019-02-05T12:35:14.681Z,4.67
2019-02-05T12:37:41.863Z,3.97
2019-02-05T12:40:10.240Z,4.77
2019-02-05T12:42:37.638Z,5.77
2019-02-05T12:45:07.588Z,3.37
2019-02-05T12:47:34.684Z,5.00
2019-02-05T12:50:01.791Z,3.80
2019-02-05T12:52:28.888Z,3.93
2019-02-05T12:54:55.988Z,3.97
2019-02-05T12:57:23.082Z,6.00
2019-02-05T12:59:50.196Z,3.87
2019-02-05T13:02:17.697Z,5.13
2019-02-05T13:04:44.819Z,4.77
2019-02-05T13:07:11.919Z,4.90
2019-02-05T13:09:39.002Z,5.00
2019-02-05T13:12:06.318Z,5.80
2019-02-05T13:14:33.458Z,5.10
2019-02-05T13:17:00.541Z,4.50
2019-02-05T13:19:27.955Z,4.93
2019-02-05T13:21:55.068Z,5.10
2019-02-05T13:24:22.172Z,5.10
2019-02-05T13:26:49.381Z,5.00
2019-02-05T13:29:16.661Z,4.80
2019-02-05T13:31:45.608Z,4.70
2019-02-05T13:34:13.818Z,4.97
2019-02-05T13:36:43.319Z,4.77
2019-02-05T13:39:12.557Z,4.80
2019-02-05T13:41:39.654Z,4.30
2019-02-05T13:44:06.820Z,5.10
2019-02-05T13:46:33.938Z,4.27
2019-02-05T13:49:03.399Z,4.93
2019-02-05T13:51:32.405Z,4.40
2019-02-05T13:53:59.614Z,6.40
2019-02-05T13:56:26.776Z,5.30
2019-02-05T13:58:53.944Z,5.63
2019-02-05T14:01:21.144Z,4.73
2019-02-05T14:03:51.040Z,5.47
2019-02-05T14:06:19.349Z,5.70
2019-02-05T14:08:46.464Z,5.10
2019-02-05T14:11:13.660Z,5.33
2019-02-05T14:13:41.812Z,5.27
2019-02-05T14:16:09.027Z,5.97
2019-02-05T14:18:37.429Z,6.23
2019-02-05T14:21:04.635Z,5.73
2019-02-05T14:23:31.847Z,4.97
2019-02-05T14:25:59.706Z,5.20
2019-02-05T14:28:30.024Z,5.10
2019-02-05T14:30:58.845Z,6.47
2019-02-05T14:33:27.754Z,7.10
2019-02-05T14:35:56.740Z,6.43
2019-02-05T14:38:24.048Z,6.80
2019-02-05T14:40:51.194Z,6.00
2019-02-05T14:43:18.955Z,5.97
2019-02-05T14:45:46.473Z,6.40
2019-02-05T14:48:14.737Z,5.87
2019-02-05T14:50:42.384Z,5.97
2019-02-05T14:53:10.291Z,6.03
2019-02-05T14:55:37.405Z,5.87
2019-02-05T14:58:06.053Z,6.27
2019-02-05T15:00:33.568Z,6.23
2019-02-05T15:03:02.100Z,6.37
2019-02-05T15:05:29.490Z,5.03
2019-02-05T15:07:56.701Z,6.57
2019-02-05T15:10:25.845Z,6.60
2019-02-05T15:12:52.953Z,6.27
2019-02-05T15:15:20.216Z,6.10
2019-02-05T15:17:47.932Z,5.73
2019-02-05T15:20:18.263Z,6.60
2019-02-05T15:22:46.437Z,6.43
2019-02-05T15:25:13.673Z,5.57
2019-02-05T15:27:40.785Z,6.43
2019-02-05T15:30:11.781Z,5.70
2019-02-05T15:33:04.287Z,10.10
2019-02-05T15:35:31.424Z,7.37
2019-02-05T15:37:59.971Z,6.93
2019-02-05T15:40:27.073Z,7.13
2019-02-05T15:42:54.313Z,6.50
2019-02-05T15:45:23.202Z,7.07
2019-02-05T15:47:52.120Z,6.70
2019-02-05T15:50:19.537Z,7.13
2019-02-05T15:52:47.861Z,6.60
2019-02-05T15:55:17.505Z,8.20
2019-02-05T15:57:46.826Z,6.97
2019-02-05T16:00:15.330Z,7.83
2019-02-05T16:02:43.765Z,7.27
2019-02-05T16:05:13.974Z,7.03
2019-02-05T16:07:42.944Z,7.40
2019-02-05T16:10:13.286Z,8.03
2019-02-05T16:12:43.297Z,7.70
2019-02-05T16:15:12.559Z,7.00
2019-02-05T16:17:39.687Z,7.20
2019-02-05T16:20:08.524Z,7.97
2019-02-05T16:22:36.853Z,6.13
2019-02-05T16:25:06.043Z,5.40
2019-02-05T16:27:33.140Z,7.50
2019-02-05T16:30:00.392Z,7.70
2019-02-05T16:32:27.836Z,5.67
2019-02-05T16:34:54.940Z,5.90
2019-02-05T16:37:22.039Z,4.70
2019-02-05T16:39:49.143Z,4.10
2019-02-05T16:42:18.163Z,4.63
2019-02-05T16:44:45.529Z,2.60
2019-02-05T16:47:14.154Z,2.03
2019-02-05T16:49:43.257Z,1.67
2019-02-05T16:52:10.433Z,1.73
2019-02-05T16:54:37.625Z,0.77
2019-02-05T16:57:04.733Z,1.23
2019-02-05T16:59:31.830Z,1.30
2019-02-05T17:01:59.127Z,1.40
2019-02-05T17:04:26.281Z,0.70
2019-02-05T17:06:56.347Z,1.03
2019-02-05T17:09:24.634Z,1.00
2019-02-05T17:11:51.724Z,1.33
2019-02-05T17:14:18.816Z,0.90
2019-02-05T17:16:47.229Z,0.80
2019-02-05T17:19:15.658Z,0.70
2019-02-05T17:21:42.906Z,0.80
2019-02-05T17:24:10.425Z,0.80
2019-02-05T17:26:37.531Z,0.90
2019-02-05T17:29:04.728Z,0.90
2019-02-05T17:31:32.940Z,0.30
2019-02-05T17:34:00.062Z,0.73
2019-02-05T17:36:27.174Z,0.67
2019-02-05T17:38:54.264Z,1.10
2019-02-05T17:41:21.667Z,1.07
2019-02-05T17:43:50.420Z,1.20
2019-02-05T17:46:18.211Z,0.70
2019-02-05T17:48:45.623Z,1.03
2019-02-05T17:51:15.232Z,1.13
2019-02-05T17:53:44.236Z,1.47
2019-02-05T17:56:11.653Z,1.27
2019-02-05T17:58:39.020Z,1.20
2019-02-05T18:01:09.661Z,1.30
2019-02-05T18:03:36.904Z,1.23
2019-02-05T18:06:05.311Z,1.10
2019-02-05T18:08:32.874Z,0.73
2019-02-05T18:11:02.073Z,0.93
2019-02-05T18:13:29.798Z,1.10
2019-02-05T18:16:00.326Z,1.13
2019-02-05T18:18:27.927Z,1.00
2019-02-05T18:20:55.175Z,1.13
2019-02-05T18:23:22.441Z,1.00
2019-02-05T18:25:49.624Z,1.30
2019-02-05T18:28:16.720Z,0.67
2019-02-05T18:30:43.946Z,1.00
2019-02-05T18:33:11.473Z,0.63
2019-02-05T18:35:43.320Z,0.47
2019-02-05T18:38:12.539Z,0.90
2019-02-05T18:40:39.712Z,0.63
2019-02-05T18:43:08.349Z,0.87
2019-02-05T18:45:35.859Z,0.70
2019-02-05T18:48:06.779Z,0.20
2019-02-05T18:50:34.106Z,0.60
2019-02-05T18:53:02.904Z,0.87
2019-02-05T18:55:30.920Z,0.70
2019-02-05T18:58:09.243Z,1.00
2019-02-05T19:00:33.645Z,1.10
2019-02-05T19:03:14.468Z,0.70
2019-02-05T19:05:41.774Z,0.67
2019-02-05T19:08:09.264Z,0.43
2019-02-05T19:10:45.856Z,0.30
2019-02-05T19:13:18.191Z,0.50
2019-02-05T19:15:47.236Z,0.67
2019-02-05T19:18:15.855Z,0.70
2019-02-05T19:20:42.991Z,0.40
2019-02-05T19:23:11.995Z,0.63
2019-02-05T19:25:50.818Z,0.60
2019-02-05T19:28:30.556Z,0.40
2019-02-05T19:31:01.495Z,0.10
2019-02-05T19:33:29.634Z,0.70
2019-02-05T19:35:57.247Z,0.80
2019-02-05T19:38:26.550Z,0.20
2019-02-05T19:40:57.659Z,0.70
2019-02-05T19:43:26.689Z,0.70
2019-02-05T19:46:18.099Z,0.67
2019-02-05T19:48:50.183Z,0.80
2019-02-05T19:51:17.365Z,0.87
2019-02-05T19:53:47.750Z,0.73
2019-02-05T19:56:15.141Z,0.90
2019-02-05T19:58:42.716Z,0.60
2019-02-05T20:01:10.197Z,0.50
2019-02-05T20:03:39.069Z,0.73
2019-02-05T20:06:06.554Z,0.70
2019-02-05T20:08:33.716Z,1.00
2019-02-05T20:11:05.617Z,0.40
2019-02-05T20:13:40.279Z,0.70
2019-02-05T20:16:04.233Z,0.60
2019-02-05T20:18:31.439Z,1.20
2019-02-05T20:20:58.643Z,1.00
2019-02-05T20:23:25.928Z,0.70
2019-02-05T20:25:53.329Z,0.80
2019-02-05T20:28:20.621Z,0.80
2019-02-05T20:30:48.054Z,0.77
2019-02-05T20:33:17.530Z,0.80
2019-02-05T20:35:45.933Z,0.70
2019-02-05T20:38:13.033Z,0.23
2019-02-05T20:40:41.425Z,0.73
2019-02-05T20:43:10.568Z,0.60
2019-02-05T20:45:51.195Z,0.80
2019-02-05T20:48:30.707Z,0.80
2019-02-05T20:51:00.712Z,0.43
2019-02-05T20:53:29.504Z,0.80
2019-02-05T20:55:56.794Z,0.73
2019-02-05T20:58:23.963Z,1.00
2019-02-05T21:00:51.071Z,0.83
2019-02-05T21:03:18.459Z,0.87
2019-02-05T21:05:46.972Z,0.90
2019-02-05T21:08:14.015Z,1.03
2019-02-05T21:10:41.125Z,0.80
2019-02-05T21:13:08.274Z,0.73
2019-02-05T21:15:35.384Z,0.60
2019-02-05T21:18:02.613Z,0.80
2019-02-05T21:20:33.300Z,0.97
2019-02-05T21:22:59.503Z,1.33
2019-02-05T21:25:26.591Z,1.13
2019-02-05T21:27:53.724Z,1.23
2019-02-05T21:30:20.872Z,1.03
2019-02-05T21:32:48.167Z,1.60
2019-02-05T21:35:15.731Z,0.77
2019-02-05T21:37:43.221Z,1.67
2019-02-05T21:40:16.480Z,1.33
2019-02-05T21:42:43.590Z,1.57
2019-02-05T21:45:16.746Z,1.20
2019-02-05T21:47:44.230Z,1.37
2019-02-05T21:50:13.410Z,1.80
2019-02-05T21:52:41.726Z,0.97
2019-02-05T21:55:09.831Z,1.43
2019-02-05T21:57:38.968Z,1.83
2019-02-05T22:00:19.230Z,1.60
2019-02-05T22:02:52.415Z,1.40
2019-02-05T22:05:22.346Z,1.27
2019-02-05T22:07:49.444Z,1.37
2019-02-05T22:10:17.548Z,1.90
2019-02-05T22:12:44.658Z,1.57
2019-02-05T22:15:12.485Z,1.60
2019-02-05T22:17:39.667Z,2.00
2019-02-05T22:20:11.786Z,1.60
2019-02-05T22:22:38.935Z,1.80
2019-02-05T22:25:09.781Z,1.50
2019-02-05T22:27:37.044Z,0.63
2019-02-05T22:30:09.087Z,1.40
2019-02-05T22:32:36.669Z,1.60
2019-02-05T22:35:04.143Z,1.80
2019-02-05T22:37:31.277Z,1.73
2019-02-05T22:39:58.369Z,2.17
2019-02-05T22:42:27.340Z,2.90
2019-02-05T22:44:54.748Z,2.37
2019-02-05T22:47:21.909Z,2.50
2019-02-05T22:49:49.004Z,2.03
2019-02-05T22:52:18.171Z,1.67
2019-02-05T22:54:47.829Z,2.10
2019-02-05T22:57:14.920Z,2.37
2019-02-05T22:59:42.460Z,2.20
2019-02-05T23:02:09.852Z,1.27
2019-02-05T23:05:06.511Z,2.00
2019-02-05T23:07:33.726Z,1.63
2019-02-05T23:10:18.493Z,2.90
2019-02-05T23:13:12.575Z,1.60
2019-02-05T23:15:44.749Z,1.40
2019-02-05T23:18:15.360Z,1.40
2019-02-05T23:20:49.147Z,1.70
2019-02-05T23:23:20.133Z,1.80
2019-02-05T23:25:50.401Z,2.00
2019-02-05T23:28:17.659Z,1.70
2019-02-05T23:30:46.794Z,2.50
2019-02-05T23:33:16.356Z,2.20
2019-02-05T23:35:47.785Z,2.63
2019-02-05T23:38:20.635Z,1.90
2019-02-05T23:40:47.818Z,2.17
2019-02-05T23:43:16.224Z,1.90
2019-02-05T23:45:45.331Z,1.43
2019-02-05T23:48:12.548Z,2.60
2019-02-05T23:50:39.861Z,2.40
2019-02-05T23:53:07.049Z,2.30
2019-02-05T23:55:35.379Z,2.00
2019-02-05T23:58:04.378Z,1.77
